Ralston, Wyoming
Current Conditions -  °F | °C
As of 2:35 PM on Friday 28 Nov 2014 (Local Time) from KPOY Reporting Station
Clear Clear  
Wind Chill:   Ceiling: Unl
Heat Index:   Visibility: 10mi
Dew Point: -3°   Wind: 36mph
Humidity: 46%   Direction: 250°WSW
Pressure: 29.57"   Gusts: 53mph
Location:  44.72°N, 108.87°W
Report Text: KPOY 282135Z AUTO 25031G46KT 10SM CLR 08/M03 A2957 RMK AO2
Loading
Personal Weather Stations






























Interactive Weather Map New forecast layout! Learn more

10-Day Weather Forecast

Advertisements
Track Severe Weather on mobile